createdAt,value
2022-08-05T00:01:13.285Z,68.8
2022-08-05T00:02:24.868Z,68.8
2022-08-05T00:04:53.160Z,69.1
2022-08-05T00:09:49.680Z,69.3
2022-08-05T00:14:46.214Z,69.4
2022-08-05T00:17:14.490Z,69.7
2022-08-05T00:22:10.957Z,70
2022-08-05T00:24:39.198Z,70.2
2022-08-05T00:25:55.880Z,70.3
2022-08-05T00:27:07.470Z,70.3
2022-08-05T00:29:35.729Z,70.3
2022-08-05T00:32:04.011Z,70.5
2022-08-05T00:37:00.524Z,71
2022-08-05T00:41:57.039Z,71.4
2022-08-05T00:44:25.341Z,71.7
2022-08-05T00:46:53.543Z,72
2022-08-05T00:49:21.807Z,72.4
2022-08-05T00:50:38.509Z,72.6
2022-08-05T00:51:50.141Z,72.7
2022-08-05T00:54:18.378Z,72.8
2022-08-05T00:56:46.620Z,72.8
2022-08-05T00:59:14.866Z,72.9
2022-08-05T01:04:11.403Z,73.2
2022-08-05T01:06:39.655Z,73.4
2022-08-05T01:09:07.929Z,73.4
2022-08-05T01:11:36.173Z,73.4
2022-08-05T01:14:04.434Z,73.6
2022-08-05T01:15:21.106Z,73.6
2022-08-05T01:16:32.712Z,73.6
2022-08-05T01:21:29.183Z,73.9
2022-08-05T01:26:25.698Z,74.1
2022-08-05T01:28:54.004Z,73.9
2022-08-05T01:43:43.529Z,73.6
2022-08-05T01:46:11.843Z,74.4
2022-08-05T01:58:33.097Z,76.1
2022-08-05T02:01:01.394Z,76
2022-08-05T02:03:29.642Z,76.1
2022-08-05T02:04:46.304Z,75.9
2022-08-05T02:05:57.903Z,76.1
2022-08-05T02:08:26.171Z,76.3
2022-08-05T02:10:54.411Z,76.9
2022-08-05T02:13:22.640Z,77.2
2022-08-05T02:28:12.205Z,79.7
2022-08-05T02:29:28.890Z,81.2
2022-08-05T02:30:40.459Z,82.2
2022-08-05T02:35:37.005Z,83.7
2022-08-05T02:38:05.270Z,84.2
2022-08-05T02:40:33.538Z,84.6
2022-08-05T02:50:26.538Z,87
2022-08-05T02:52:54.768Z,87.4
2022-08-05T02:54:11.480Z,88
2022-08-05T02:55:23.112Z,88.2
2022-08-05T02:57:51.380Z,88.5
2022-08-05T03:00:19.629Z,89
2022-08-05T03:05:16.123Z,88.5
2022-08-05T03:07:44.368Z,88.5
2022-08-05T03:10:12.663Z,87.8
2022-08-05T03:12:40.861Z,87.6
2022-08-05T03:15:09.125Z,87.5
2022-08-05T03:17:37.452Z,87.2
2022-08-05T03:18:54.049Z,87
2022-08-05T03:20:05.667Z,86.7
2022-08-05T03:22:33.965Z,86.8
2022-08-05T03:25:02.187Z,86.7
2022-08-05T03:29:58.680Z,86.9
2022-08-05T03:32:26.962Z,86.3
2022-08-05T03:34:55.205Z,86.5
2022-08-05T03:37:23.487Z,86.4
2022-08-05T03:39:51.730Z,86
2022-08-05T03:43:36.671Z,85.6
2022-08-05T03:49:44.751Z,87
2022-08-05T03:52:13.071Z,87.4
2022-08-05T03:54:41.333Z,87.5
2022-08-05T03:59:37.817Z,87.6
2022-08-05T04:07:02.570Z,87.7
2022-08-05T04:08:19.230Z,87.8
2022-08-05T04:11:59.126Z,87.8
2022-08-05T04:14:27.381Z,87.2
2022-08-05T04:19:23.905Z,87.5
2022-08-05T04:21:52.145Z,87.9
2022-08-05T04:24:20.430Z,88.2
2022-08-05T04:26:48.640Z,88
2022-08-05T04:29:16.955Z,87.1
2022-08-05T04:31:45.169Z,87.8
2022-08-05T04:33:01.871Z,87.9
2022-08-05T04:34:13.502Z,88.4
2022-08-05T04:36:41.690Z,88.8
2022-08-05T04:39:10.012Z,89.3
2022-08-05T04:41:38.204Z,89.3
2022-08-05T04:44:06.538Z,88.8
2022-08-05T04:51:31.276Z,88
2022-08-05T04:53:59.517Z,88
2022-08-05T04:57:44.452Z,88.6
2022-08-05T04:58:56.056Z,88.6
2022-08-05T05:01:24.296Z,88.7
2022-08-05T05:06:20.832Z,88.4
2022-08-05T05:08:49.091Z,88.3
2022-08-05T05:11:17.348Z,88.5
2022-08-05T05:13:45.573Z,88.6
2022-08-05T05:16:13.839Z,88.5
2022-08-05T05:18:42.134Z,88.7
2022-08-05T05:21:10.383Z,88.8
2022-08-05T05:22:27.070Z,88.7
2022-08-05T05:23:38.673Z,88.9
2022-08-05T05:26:06.957Z,89
2022-08-05T05:28:35.165Z,88.5
2022-08-05T05:31:03.470Z,88.5
2022-08-05T05:33:31.654Z,88.6
2022-08-05T05:35:59.948Z,88.4
2022-08-05T05:43:24.701Z,88
2022-08-05T05:48:21.259Z,89.3
2022-08-05T05:50:49.484Z,89.4
2022-08-05T05:53:17.799Z,89.4
2022-08-05T05:58:14.271Z,89.5
2022-08-05T06:00:42.513Z,89
2022-08-05T06:03:10.802Z,88.8
2022-08-05T06:05:39.040Z,89.2
2022-08-05T06:08:07.330Z,89
2022-08-05T06:10:35.581Z,88.7
2022-08-05T06:11:52.228Z,88.8
2022-08-05T06:13:03.858Z,88.8
2022-08-05T06:15:32.080Z,89.1
2022-08-05T06:18:00.369Z,88.6
2022-08-05T06:20:28.649Z,88.3
2022-08-05T06:22:56.848Z,88.3
2022-08-05T06:25:25.135Z,88.2
2022-08-05T06:27:53.379Z,88.2
2022-08-05T06:32:49.927Z,88.1
2022-08-05T06:35:18.139Z,87.6
2022-08-05T06:36:34.860Z,88
2022-08-05T06:40:14.680Z,88.1
2022-08-05T06:42:42.961Z,87.6
2022-08-05T06:47:39.457Z,88
2022-08-05T06:50:07.720Z,88.1
2022-08-05T06:55:04.243Z,88.6
2022-08-05T06:57:32.507Z,88.7
2022-08-05T07:00:00.797Z,89.2
2022-08-05T07:01:17.426Z,89.2
2022-08-05T07:02:29.010Z,89.1
2022-08-05T07:04:57.000Z,89
2022-08-05T07:07:25.533Z,88.8
2022-08-05T07:12:22.051Z,88.3
2022-08-05T07:14:50.293Z,88.2
2022-08-05T07:17:18.548Z,88.5
2022-08-05T07:19:46.844Z,88.6
2022-08-05T07:22:15.126Z,88.7
2022-08-05T07:26:00.061Z,87.8
2022-08-05T07:27:11.598Z,87.8
2022-08-05T07:32:08.150Z,88.1
2022-08-05T07:37:04.692Z,88.3
2022-08-05T07:39:32.902Z,88.7
2022-08-05T07:42:01.223Z,88.6
2022-08-05T07:46:57.734Z,88.7
2022-08-05T07:49:25.966Z,88.7
2022-08-05T07:54:22.464Z,89
2022-08-05T07:59:18.972Z,89.7
2022-08-05T08:01:47.270Z,90
2022-08-05T08:04:15.532Z,89.9
2022-08-05T08:06:43.730Z,89.7
2022-08-05T08:11:40.262Z,90.1
2022-08-05T08:14:08.548Z,90.5
2022-08-05T08:15:25.192Z,90.8
2022-08-05T08:16:36.830Z,90.2
2022-08-05T08:19:05.072Z,90.1
2022-08-05T08:21:33.368Z,90.7
2022-08-05T08:24:01.603Z,91.1
2022-08-05T08:26:29.844Z,90.4
2022-08-05T08:28:58.122Z,90.7
2022-08-05T08:31:26.352Z,90.6
2022-08-05T08:33:54.657Z,90.9
2022-08-05T08:36:22.900Z,90.5
2022-08-05T08:40:07.804Z,90.4
2022-08-05T08:41:19.449Z,90.6
2022-08-05T08:48:44.162Z,90.1
2022-08-05T08:51:12.412Z,90.4
2022-08-05T08:53:40.714Z,90.4
2022-08-05T08:56:08.961Z,90.3
2022-08-05T09:01:05.456Z,90.4
2022-08-05T09:03:33.710Z,90.7
2022-08-05T09:04:50.411Z,90.4
2022-08-05T09:06:02.028Z,90.4
2022-08-05T09:10:58.517Z,90.2
2022-08-05T09:13:26.777Z,89.6
2022-08-05T09:15:55.017Z,89.4
2022-08-05T09:18:23.322Z,89.5
2022-08-05T09:20:51.590Z,89.6
2022-08-05T09:23:19.824Z,89.5
2022-08-05T09:25:48.037Z,89
2022-08-05T09:28:16.305Z,88.9
2022-08-05T09:29:32.981Z,89.1
2022-08-05T09:30:44.733Z,89
2022-08-05T09:33:13.000Z,89.5
2022-08-05T09:38:09.568Z,88.6
2022-08-05T09:40:37.785Z,88.8
2022-08-05T09:43:06.044Z,88.5
2022-08-05T09:45:34.315Z,87.7
2022-08-05T09:48:02.561Z,87.5
2022-08-05T09:50:30.833Z,87.5
2022-08-05T09:52:59.087Z,87.9
2022-08-05T09:55:27.316Z,88
2022-08-05T10:00:23.835Z,88.3
2022-08-05T10:02:52.115Z,88.8
2022-08-05T10:05:20.359Z,89.2
2022-08-05T10:10:16.908Z,89.3
2022-08-05T10:18:58.179Z,88.8
2022-08-05T10:22:38.170Z,88.6
2022-08-05T10:25:06.432Z,88.2
2022-08-05T10:27:34.714Z,87.7
2022-08-05T10:30:02.920Z,87.3
2022-08-05T10:34:59.437Z,87.3
2022-08-05T10:37:27.759Z,86.9
2022-08-05T10:39:55.971Z,86.7
2022-08-05T10:42:24.229Z,86.2
2022-08-05T10:43:40.790Z,85.8
2022-08-05T10:44:52.475Z,86.1
2022-08-05T10:47:20.788Z,85.5
2022-08-05T10:49:49.031Z,85.2
2022-08-05T10:52:17.258Z,83.8
2022-08-05T10:54:45.538Z,83.9
2022-08-05T10:57:13.761Z,82.8
2022-08-05T11:04:38.575Z,80.4
2022-08-05T11:07:06.816Z,79.4
2022-08-05T11:08:23.376Z,79.6
2022-08-05T11:09:35.101Z,80.9
2022-08-05T11:21:56.377Z,77.6
2022-08-05T11:24:24.618Z,74
2022-08-05T11:29:21.112Z,70.3
2022-08-05T11:31:49.428Z,70.6
2022-08-05T11:33:05.970Z,72.8
2022-08-05T11:34:17.655Z,73.4
2022-08-05T11:36:45.944Z,73.6
2022-08-05T11:41:42.408Z,72.4
2022-08-05T11:44:10.706Z,70.3
2022-08-05T11:46:38.932Z,70
2022-08-05T11:49:07.222Z,69.7
2022-08-05T11:51:35.479Z,67.5
2022-08-05T11:54:03.793Z,67.5
2022-08-05T11:59:00.231Z,60
2022-08-05T12:01:28.514Z,57.9
2022-08-05T12:03:56.745Z,57.1
2022-08-05T12:08:53.299Z,56.3
2022-08-05T12:13:49.789Z,52.3
2022-08-05T12:18:46.323Z,53.4
2022-08-05T12:22:31.170Z,53.4
2022-08-05T12:23:42.795Z,54
2022-08-05T12:26:11.085Z,51.2
2022-08-05T12:28:39.372Z,52.2
2022-08-05T12:33:35.884Z,49.9
2022-08-05T12:38:32.408Z,51.7
2022-08-05T12:43:28.857Z,50.6
2022-08-05T12:47:13.781Z,49.3
2022-08-05T12:48:25.372Z,50.4
2022-08-05T12:50:53.655Z,50.2
2022-08-05T12:53:21.899Z,52.3
2022-08-05T12:55:50.146Z,51.4
2022-08-05T13:00:46.728Z,51.3
2022-08-05T13:03:14.947Z,51.7
2022-08-05T13:05:43.211Z,54.1
2022-08-05T13:08:11.494Z,52.9
2022-08-05T13:10:39.692Z,53.5
2022-08-05T13:11:56.330Z,54.7
2022-08-05T13:13:07.952Z,56.9
2022-08-05T13:15:36.255Z,56.6
2022-08-05T13:20:32.747Z,57.2
2022-08-05T13:23:01.001Z,57.1
2022-08-05T13:25:29.259Z,56.7
2022-08-05T13:27:57.545Z,56.3
2022-08-05T13:30:25.755Z,55.1
2022-08-05T13:32:54.062Z,56.7
2022-08-05T13:36:38.931Z,56.5
2022-08-05T13:37:50.541Z,54.9
2022-08-05T13:42:47.097Z,55.3
2022-08-05T13:45:15.354Z,55.8
2022-08-05T13:47:43.566Z,56.7
2022-08-05T13:52:40.153Z,56.1
2022-08-05T13:57:36.653Z,57.9
2022-08-05T14:00:04.881Z,56.6
2022-08-05T14:02:33.138Z,56.5
2022-08-05T14:07:29.649Z,56.3
2022-08-05T14:09:57.949Z,56.9
2022-08-05T14:12:26.201Z,58
2022-08-05T14:14:54.422Z,57.6
2022-08-05T14:17:22.685Z,56.8
2022-08-05T14:19:50.947Z,56.8
2022-08-05T14:22:19.218Z,57.2
2022-08-05T14:26:04.103Z,58.9
2022-08-05T14:32:12.290Z,58.3
2022-08-05T14:34:40.483Z,59.8
2022-08-05T14:37:08.769Z,60.6
2022-08-05T14:42:05.297Z,61.5
2022-08-05T14:44:33.554Z,61.8
2022-08-05T14:47:01.816Z,60.5
2022-08-05T14:56:54.821Z,54.9
2022-08-05T14:59:23.108Z,55.4
2022-08-05T15:01:51.384Z,54.7
2022-08-05T15:06:47.878Z,52.3
2022-08-05T15:11:44.363Z,53
2022-08-05T15:14:12.680Z,52.8
2022-08-05T15:16:40.924Z,55.1
2022-08-05T15:19:09.185Z,54.4
2022-08-05T15:21:37.480Z,53.7
2022-08-05T15:24:05.700Z,54.2
2022-08-05T15:29:02.251Z,53.9
2022-08-05T15:33:58.745Z,54.7
2022-08-05T15:36:26.995Z,54.8
2022-08-05T15:38:55.278Z,55.9
2022-08-05T15:40:11.913Z,54.5
2022-08-05T15:43:51.792Z,54.7
2022-08-05T15:48:48.314Z,54.5
2022-08-05T15:51:16.555Z,54.5
2022-08-05T15:53:44.784Z,55.1
2022-08-05T15:56:13.106Z,55.8
2022-08-05T15:58:41.343Z,55.3
2022-08-05T16:01:09.588Z,54.1
2022-08-05T16:03:37.862Z,54.8
2022-08-05T16:08:34.400Z,55
2022-08-05T16:11:02.672Z,54.5
2022-08-05T16:13:30.899Z,55.1
2022-08-05T16:15:59.160Z,56.2
2022-08-05T16:18:27.407Z,55.5
2022-08-05T16:20:55.664Z,55.2
2022-08-05T16:23:23.958Z,56.4
2022-08-05T16:28:20.474Z,55.7
2022-08-05T16:29:37.107Z,56.1
2022-08-05T16:33:16.943Z,56.1
2022-08-05T16:35:45.206Z,56.1
2022-08-05T16:38:13.523Z,56.6
2022-08-05T16:43:10.002Z,57.4
2022-08-05T16:48:06.556Z,58.4
2022-08-05T16:50:34.772Z,56.1
2022-08-05T16:53:03.064Z,57.4
2022-08-05T16:54:19.692Z,54.9
2022-08-05T16:55:31.348Z,54.4
2022-08-05T16:57:59.594Z,54.6
2022-08-05T17:02:56.061Z,54.6
2022-08-05T17:10:20.921Z,53.9
2022-08-05T17:12:49.132Z,52.9
2022-08-05T17:17:45.690Z,51.9
2022-08-05T17:19:02.307Z,55.5
2022-08-05T17:20:13.911Z,51.9
2022-08-05T17:22:42.153Z,52.3
2022-08-05T17:25:10.464Z,50.9
2022-08-05T17:27:38.670Z,49.6
2022-08-05T17:30:06.974Z,49.9
2022-08-05T17:32:35.170Z,48.7
2022-08-05T17:35:03.481Z,48.9
2022-08-05T17:40:00.002Z,49.1
2022-08-05T17:42:28.208Z,48
2022-08-05T17:43:44.892Z,47.3
2022-08-05T17:47:24.760Z,47.3
2022-08-05T17:49:53.054Z,48.6
2022-08-05T17:54:49.577Z,47.9
2022-08-05T17:57:17.831Z,47.3
2022-08-05T18:02:14.289Z,47
2022-08-05T18:04:42.567Z,47.4
2022-08-05T18:07:10.835Z,48.1
2022-08-05T18:09:39.088Z,46.9
2022-08-05T18:12:07.373Z,46.3
2022-08-05T18:14:35.630Z,46.2
2022-08-05T18:17:03.912Z,46.1
2022-08-05T18:19:32.176Z,46.4
2022-08-05T18:24:28.634Z,46.3
2022-08-05T18:26:56.888Z,46.5
2022-08-05T18:29:25.207Z,45.9
2022-08-05T18:31:53.462Z,46.1
2022-08-05T18:33:10.131Z,45.8
2022-08-05T18:39:18.252Z,46.4
2022-08-05T18:41:46.519Z,46
2022-08-05T18:44:14.731Z,46.5
2022-08-05T18:54:07.742Z,47.8
2022-08-05T18:57:52.730Z,48.1
2022-08-05T18:59:04.334Z,47.7
2022-08-05T19:01:32.540Z,48.1
2022-08-05T19:04:00.804Z,47.1
2022-08-05T19:08:57.309Z,47.5
2022-08-05T19:11:25.602Z,47.9
2022-08-05T19:13:53.831Z,47.4
2022-08-05T19:16:22.129Z,47.9
2022-08-05T19:18:50.364Z,48.3
2022-08-05T19:21:18.657Z,47.8
2022-08-05T19:22:35.286Z,48.3
2022-08-05T19:26:15.120Z,48.7
2022-08-05T19:28:43.374Z,49.7
2022-08-05T19:31:11.631Z,49
2022-08-05T19:33:39.909Z,49.6
2022-08-05T19:36:08.144Z,49.3
2022-08-05T19:38:36.421Z,49.4
2022-08-05T19:41:04.701Z,49.6
2022-08-05T19:43:32.979Z,50.9
2022-08-05T19:46:01.215Z,50.3
2022-08-05T19:47:17.881Z,50.7
2022-08-05T19:48:29.474Z,50.7
2022-08-05T19:55:54.271Z,50.9
2022-08-05T19:58:22.546Z,51
2022-08-05T20:00:50.801Z,52.1
2022-08-05T20:03:19.067Z,51.6
2022-08-05T20:08:15.526Z,52
2022-08-05T20:10:43.847Z,51.9
2022-08-05T20:15:40.376Z,53.2
2022-08-05T20:23:05.143Z,52.6
2022-08-05T20:25:33.385Z,52.8
2022-08-05T20:28:01.656Z,53.4
2022-08-05T20:32:58.152Z,53.3
2022-08-05T20:35:26.421Z,53.2
2022-08-05T20:36:43.051Z,53.5
2022-08-05T20:37:54.672Z,53.5
2022-08-05T20:40:22.914Z,53.6
2022-08-05T20:42:51.218Z,53.8
2022-08-05T20:45:19.464Z,53.7
2022-08-05T20:47:47.725Z,54.1
2022-08-05T20:50:15.988Z,54.2
2022-08-05T20:52:44.246Z,54
2022-08-05T20:55:12.512Z,54
2022-08-05T20:57:40.766Z,54.1
2022-08-05T21:00:08.960Z,53.7
2022-08-05T21:01:25.688Z,53.8
2022-08-05T21:02:37.280Z,54.4
2022-08-05T21:10:02.020Z,55
2022-08-05T21:12:30.257Z,55.3
2022-08-05T21:17:26.806Z,56
2022-08-05T21:19:55.049Z,56.2
2022-08-05T21:22:23.306Z,56.7
2022-08-05T21:24:51.559Z,56.8
2022-08-05T21:26:08.228Z,57.3
2022-08-05T21:27:19.874Z,57.5
2022-08-05T21:32:16.325Z,57.4
2022-08-05T21:34:44.597Z,57.6
2022-08-05T21:39:41.162Z,58.1
2022-08-05T21:42:09.372Z,58
2022-08-05T21:44:37.643Z,58.5
2022-08-05T21:47:05.903Z,58.7
2022-08-05T21:49:34.133Z,58.4
2022-08-05T21:50:50.842Z,58.7
2022-08-05T21:52:02.407Z,59.1
2022-08-05T21:54:30.659Z,59.3
2022-08-05T22:01:55.454Z,59.4
2022-08-05T22:04:23.000Z,59.3
2022-08-05T22:09:20.244Z,59.9
2022-08-05T22:14:16.779Z,60.3
2022-08-05T22:16:45.020Z,60.4
2022-08-05T22:19:13.283Z,60.4
2022-08-05T22:26:38.068Z,61.1
2022-08-05T22:29:06.308Z,61.5
2022-08-05T22:31:34.534Z,61.5
2022-08-05T22:34:02.827Z,61.5
2022-08-05T22:40:15.993Z,62.3
2022-08-05T22:43:55.856Z,62.8
2022-08-05T22:46:24.134Z,62.8
2022-08-05T22:48:52.369Z,62.4
2022-08-05T22:51:20.653Z,62.6
2022-08-05T22:53:48.861Z,62.7
2022-08-05T22:56:17.162Z,62.4
2022-08-05T22:58:45.398Z,62.7
2022-08-05T23:01:13.632Z,62.6
2022-08-05T23:03:41.905Z,62.8
2022-08-05T23:04:58.592Z,63.1
2022-08-05T23:06:10.195Z,63.3
2022-08-05T23:11:06.684Z,62.9
2022-08-05T23:13:34.988Z,63.1
2022-08-05T23:16:03.254Z,63.3
2022-08-05T23:18:31.500Z,63.1
2022-08-05T23:20:59.727Z,63.5
2022-08-05T23:23:27.977Z,63.3
2022-08-05T23:28:24.515Z,63.1
2022-08-05T23:30:52.790Z,63.4
2022-08-05T23:33:21.056Z,63.5
2022-08-05T23:38:17.541Z,63.5
2022-08-05T23:43:14.054Z,63.5
2022-08-05T23:45:42.352Z,63.9
2022-08-05T23:48:10.548Z,63.5
2022-08-05T23:50:38.868Z,64
2022-08-05T23:53:07.068Z,64
2022-08-05T23:54:23.750Z,64.2
2022-08-05T23:58:03.626Z,64.3
